createdAt,value
2023-02-15T00:01:49.042Z,4.36
2023-02-15T00:04:18.057Z,4.41
2023-02-15T00:06:44.510Z,4.53
2023-02-15T00:09:12.016Z,4.44
2023-02-15T00:11:43.345Z,4.54
2023-02-15T00:14:21.471Z,4.48
2023-02-15T00:16:49.599Z,4.45
2023-02-15T00:19:18.379Z,4.42
2023-02-15T00:21:45.252Z,4.34
2023-02-15T00:24:13.498Z,4.25
2023-02-15T00:26:41.763Z,4.35
2023-02-15T00:29:10.095Z,4.35
2023-02-15T00:31:36.645Z,4.20
2023-02-15T00:34:15.116Z,4.29
2023-02-15T00:36:41.521Z,4.17
2023-02-15T00:39:07.904Z,4.05
2023-02-15T00:41:34.690Z,4.04
2023-02-15T00:44:01.233Z,4.07
2023-02-15T00:46:27.692Z,4.01
2023-02-15T00:48:55.391Z,4.07
2023-02-15T00:51:21.766Z,4.23
2023-02-15T00:53:48.652Z,4.30
2023-02-15T00:56:15.104Z,4.27
2023-02-15T00:58:41.798Z,4.18
2023-02-15T01:01:17.680Z,4.23
2023-02-15T01:03:44.607Z,4.03
2023-02-15T01:06:11.804Z,4.08
2023-02-15T01:08:38.788Z,4.05
2023-02-15T01:11:08.560Z,4.09
2023-02-15T01:13:35.524Z,4.04
2023-02-15T01:16:02.882Z,3.99
2023-02-15T01:18:30.810Z,3.96
2023-02-15T01:20:58.381Z,3.97
2023-02-15T01:23:24.822Z,4.07
2023-02-15T01:25:51.159Z,3.91
2023-02-15T01:28:17.525Z,4.00
2023-02-15T01:30:44.020Z,3.89
2023-02-15T01:33:18.320Z,4.06
2023-02-15T01:35:46.802Z,4.07
2023-02-15T01:38:14.389Z,4.07
2023-02-15T01:40:40.860Z,4.04
2023-02-15T01:43:12.014Z,4.05
2023-02-15T01:45:39.160Z,4.05
2023-02-15T01:48:22.009Z,4.03
2023-02-15T01:50:54.133Z,3.94
2023-02-15T01:53:27.228Z,4.00
2023-02-15T01:56:07.609Z,3.99
2023-02-15T01:58:36.168Z,3.99
2023-02-15T02:01:04.780Z,3.89
2023-02-15T02:03:51.140Z,3.92
2023-02-15T02:06:18.309Z,3.88
2023-02-15T02:08:45.154Z,3.78
2023-02-15T02:11:15.278Z,3.90
2023-02-15T02:13:44.152Z,3.76
2023-02-15T02:16:25.202Z,3.73
2023-02-15T02:19:08.018Z,3.59
2023-02-15T02:21:37.629Z,3.37
2023-02-15T02:24:24.458Z,3.44
2023-02-15T02:27:12.573Z,3.44
2023-02-15T02:30:00.614Z,3.47
2023-02-15T02:32:56.612Z,3.49
2023-02-15T02:35:41.215Z,3.55
2023-02-15T02:38:37.228Z,3.64
2023-02-15T02:41:11.981Z,3.53
2023-02-15T02:43:52.341Z,3.29
2023-02-15T02:46:29.110Z,3.43
2023-02-15T02:48:55.933Z,3.45
2023-02-15T02:51:23.110Z,3.48
2023-02-15T02:53:57.165Z,3.63
2023-02-15T02:56:54.259Z,3.38
2023-02-15T02:59:35.437Z,3.53
2023-02-15T03:02:13.621Z,3.61
2023-02-15T03:04:44.675Z,3.76
2023-02-15T03:07:15.524Z,3.34
2023-02-15T03:09:45.741Z,3.40
2023-02-15T03:12:18.214Z,3.33
2023-02-15T03:14:48.849Z,3.46
2023-02-15T03:17:19.793Z,3.49
2023-02-15T03:19:48.678Z,3.45
2023-02-15T03:22:20.998Z,3.57
2023-02-15T03:24:58.169Z,2.98
2023-02-15T03:27:31.988Z,3.04
2023-02-15T03:30:02.692Z,3.31
2023-02-15T03:32:31.914Z,3.32
2023-02-15T03:34:58.420Z,3.41
2023-02-15T03:37:34.640Z,3.55
2023-02-15T03:40:27.129Z,3.65
2023-02-15T03:43:02.790Z,3.56
2023-02-15T03:45:33.070Z,3.64
2023-02-15T03:48:01.864Z,3.73
2023-02-15T03:50:50.529Z,3.72
2023-02-15T03:53:22.010Z,3.62
2023-02-15T03:55:50.236Z,3.53
2023-02-15T03:58:35.046Z,3.60
2023-02-15T04:01:30.256Z,3.68
2023-02-15T04:04:02.993Z,3.76
2023-02-15T04:06:29.645Z,3.66
2023-02-15T04:09:14.496Z,3.70
2023-02-15T04:11:40.820Z,3.70
2023-02-15T04:14:25.827Z,3.68
2023-02-15T04:16:52.288Z,3.72
2023-02-15T04:19:37.639Z,3.57
2023-02-15T04:22:22.533Z,3.62
2023-02-15T04:25:07.488Z,3.48
2023-02-15T04:27:34.208Z,3.59
2023-02-15T04:30:00.645Z,3.49
2023-02-15T04:32:27.666Z,3.43
2023-02-15T04:34:54.400Z,3.47
2023-02-15T04:37:20.774Z,3.46
2023-02-15T04:39:47.310Z,3.41
2023-02-15T04:42:13.690Z,3.42
2023-02-15T04:44:40.019Z,3.47
2023-02-15T04:47:06.365Z,3.46
2023-02-15T04:49:32.750Z,3.35
2023-02-15T04:51:59.101Z,3.45
2023-02-15T04:54:25.420Z,3.38
2023-02-15T04:56:51.825Z,3.38
2023-02-15T04:59:18.211Z,3.26
2023-02-15T05:01:44.601Z,3.35
2023-02-15T05:04:11.263Z,3.48
2023-02-15T05:06:37.626Z,3.41
2023-02-15T05:09:04.142Z,3.33
2023-02-15T05:11:30.480Z,3.39
2023-02-15T05:13:56.851Z,3.28
2023-02-15T05:16:23.251Z,3.31
2023-02-15T05:18:49.749Z,3.40
2023-02-15T05:21:17.390Z,3.42
2023-02-15T05:23:43.713Z,3.49
2023-02-15T05:26:31.946Z,3.46
2023-02-15T05:28:58.330Z,3.43
2023-02-15T05:31:24.879Z,3.38
2023-02-15T05:33:51.650Z,3.30
2023-02-15T05:36:18.051Z,3.35
2023-02-15T05:38:44.409Z,3.38
2023-02-15T05:41:12.478Z,3.36
2023-02-15T05:43:39.454Z,3.46
2023-02-15T05:46:07.691Z,3.31
2023-02-15T05:48:34.659Z,3.37
2023-02-15T05:51:10.071Z,3.23
2023-02-15T05:53:38.363Z,3.20
2023-02-15T05:56:06.111Z,3.30
2023-02-15T05:58:35.817Z,3.38
2023-02-15T06:01:28.428Z,3.34
2023-02-15T06:03:56.551Z,3.43
2023-02-15T06:06:23.321Z,3.45
2023-02-15T06:08:49.628Z,3.35
2023-02-15T06:11:16.222Z,3.30
2023-02-15T06:13:42.577Z,3.25
2023-02-15T06:16:08.958Z,3.31
2023-02-15T06:18:36.109Z,3.24
2023-02-15T06:21:02.449Z,3.38
2023-02-15T06:23:29.427Z,3.39
2023-02-15T06:25:55.742Z,3.35
2023-02-15T06:28:22.120Z,3.37
2023-02-15T06:30:48.724Z,3.15
2023-02-15T06:33:15.074Z,3.22
2023-02-15T06:35:41.456Z,3.25
2023-02-15T06:38:07.767Z,3.19
2023-02-15T06:40:34.385Z,3.28
2023-02-15T06:43:00.712Z,3.27
2023-02-15T06:45:27.045Z,3.19
2023-02-15T06:47:53.380Z,3.27
2023-02-15T06:50:19.695Z,3.30
2023-02-15T06:52:46.085Z,3.25
2023-02-15T06:55:12.596Z,3.37
2023-02-15T06:57:38.924Z,3.20
2023-02-15T07:00:06.871Z,2.99
2023-02-15T07:02:33.368Z,2.99
2023-02-15T07:04:59.722Z,2.88
2023-02-15T07:07:26.316Z,2.96
2023-02-15T07:09:52.644Z,3.03
2023-02-15T07:12:37.544Z,3.05
2023-02-15T07:15:05.242Z,3.18
2023-02-15T07:17:35.724Z,3.04
2023-02-15T07:20:12.436Z,3.07
2023-02-15T07:22:39.185Z,3.12
2023-02-15T07:25:07.855Z,2.99
2023-02-15T07:27:34.567Z,3.04
2023-02-15T07:30:01.646Z,2.97
2023-02-15T07:32:32.564Z,2.88
2023-02-15T07:34:59.550Z,2.92
2023-02-15T07:37:26.954Z,3.04
2023-02-15T07:39:53.298Z,2.94
2023-02-15T07:42:20.750Z,2.77
2023-02-15T07:44:47.498Z,2.80
2023-02-15T07:47:13.884Z,2.85
2023-02-15T07:49:40.212Z,3.00
2023-02-15T07:52:06.590Z,3.01
2023-02-15T07:54:32.897Z,3.09
2023-02-15T07:56:59.239Z,2.97
2023-02-15T07:59:25.611Z,2.94
2023-02-15T08:01:53.814Z,2.80
2023-02-15T08:04:20.200Z,2.90
2023-02-15T08:06:46.652Z,2.72
2023-02-15T08:09:12.989Z,2.79
2023-02-15T08:11:41.612Z,2.84
2023-02-15T08:14:15.211Z,2.98
2023-02-15T08:16:45.509Z,2.97
2023-02-15T08:19:11.814Z,2.86
2023-02-15T08:21:40.908Z,2.87
2023-02-15T08:24:08.726Z,2.97
2023-02-15T08:26:35.665Z,2.98
2023-02-15T08:29:03.273Z,2.85
2023-02-15T08:31:30.328Z,2.84
2023-02-15T08:33:57.842Z,2.81
2023-02-15T08:36:28.444Z,2.60
2023-02-15T08:38:55.037Z,2.85
2023-02-15T08:41:35.640Z,2.88
2023-02-15T08:44:04.853Z,3.07
2023-02-15T08:46:34.413Z,3.10
2023-02-15T08:49:01.385Z,3.08
2023-02-15T08:51:30.708Z,2.98
2023-02-15T08:54:00.228Z,3.01
2023-02-15T08:56:29.079Z,3.11
2023-02-15T08:58:56.781Z,3.08
2023-02-15T09:01:26.036Z,3.18
2023-02-15T09:03:57.013Z,3.16
2023-02-15T09:06:24.255Z,3.23
2023-02-15T09:08:51.483Z,3.30
2023-02-15T09:11:26.950Z,3.36
2023-02-15T09:13:59.513Z,3.45
2023-02-15T09:16:28.956Z,3.43
2023-02-15T09:18:58.389Z,3.36
2023-02-15T09:21:26.128Z,3.34
2023-02-15T09:23:57.408Z,3.27
2023-02-15T09:26:25.201Z,3.27
2023-02-15T09:28:57.013Z,3.31
2023-02-15T09:31:26.113Z,3.34
2023-02-15T09:33:53.146Z,3.42
2023-02-15T09:36:25.354Z,3.35
2023-02-15T09:39:03.180Z,3.43
2023-02-15T09:41:37.907Z,3.39
2023-02-15T09:44:18.001Z,3.28
2023-02-15T09:47:13.417Z,3.40
2023-02-15T09:49:58.477Z,3.49
2023-02-15T09:52:50.898Z,3.40
2023-02-15T09:55:38.108Z,3.59
2023-02-15T09:58:28.968Z,3.59
2023-02-15T10:01:05.665Z,3.66
2023-02-15T10:03:38.508Z,3.67
2023-02-15T10:06:12.709Z,3.82
2023-02-15T10:09:00.306Z,3.90
2023-02-15T10:11:59.008Z,4.02
2023-02-15T10:14:38.619Z,4.06
2023-02-15T10:17:19.906Z,4.14
2023-02-15T10:20:01.021Z,4.10
2023-02-15T10:23:04.117Z,4.20
2023-02-15T10:25:42.414Z,4.23
2023-02-15T10:28:36.696Z,4.31
2023-02-15T10:31:23.206Z,4.36
2023-02-15T10:33:59.876Z,4.35
2023-02-15T10:36:56.186Z,4.37
2023-02-15T10:39:44.273Z,4.31
2023-02-15T10:42:24.858Z,4.20
2023-02-15T10:45:01.014Z,4.17
2023-02-15T10:47:33.527Z,4.08
2023-02-15T10:50:11.726Z,3.99
2023-02-15T10:52:59.385Z,3.97
2023-02-15T10:55:39.310Z,3.62
2023-02-15T10:58:13.052Z,3.83
2023-02-15T11:00:48.339Z,3.95
2023-02-15T11:03:31.926Z,4.12
2023-02-15T11:06:15.312Z,4.11
2023-02-15T11:08:48.783Z,4.27
2023-02-15T11:11:25.500Z,4.38
2023-02-15T11:13:57.561Z,4.51
2023-02-15T11:16:29.653Z,4.58
2023-02-15T11:19:00.836Z,4.52
2023-02-15T11:21:37.682Z,4.58
2023-02-15T11:24:16.957Z,4.68
2023-02-15T11:26:48.114Z,4.74
2023-02-15T11:29:34.341Z,4.75
2023-02-15T11:32:23.204Z,4.84
2023-02-15T11:34:59.164Z,4.94
2023-02-15T11:37:34.599Z,5.03
2023-02-15T11:40:04.211Z,5.13
2023-02-15T11:42:32.359Z,5.19
2023-02-15T11:45:17.544Z,5.13
2023-02-15T11:47:44.061Z,5.13
2023-02-15T11:50:22.900Z,5.24
2023-02-15T11:52:56.711Z,5.34
2023-02-15T11:55:24.937Z,5.24
2023-02-15T11:58:14.888Z,5.35
2023-02-15T12:00:47.601Z,5.31
2023-02-15T12:03:20.936Z,5.42
2023-02-15T12:05:54.342Z,5.59
2023-02-15T12:08:22.319Z,5.65
2023-02-15T12:11:13.188Z,5.76
2023-02-15T12:13:57.255Z,5.79
2023-02-15T12:16:23.909Z,5.65
2023-02-15T12:18:57.761Z,5.87
2023-02-15T12:21:34.155Z,5.94
2023-02-15T12:24:13.885Z,5.71
2023-02-15T12:26:41.559Z,5.85
2023-02-15T12:29:17.251Z,6.02
2023-02-15T12:31:50.833Z,6.13
2023-02-15T12:34:26.067Z,6.28
2023-02-15T12:37:01.191Z,6.46
2023-02-15T12:39:28.712Z,6.55
2023-02-15T12:41:55.059Z,6.49
2023-02-15T12:44:26.768Z,6.74
2023-02-15T12:47:16.478Z,7.03
2023-02-15T12:49:47.690Z,7.31
2023-02-15T12:52:20.992Z,7.53
2023-02-15T12:54:48.273Z,7.69
2023-02-15T12:57:34.212Z,8.17
2023-02-15T13:00:07.668Z,8.42
2023-02-15T13:02:42.119Z,9.00
2023-02-15T13:05:20.690Z,9.26
2023-02-15T13:07:56.811Z,9.48
2023-02-15T13:10:34.576Z,9.99
2023-02-15T13:13:03.742Z,10.21
2023-02-15T13:15:36.252Z,10.66
2023-02-15T13:18:05.261Z,11.12
2023-02-15T13:20:35.413Z,11.37
2023-02-15T13:23:13.506Z,11.80
2023-02-15T13:25:51.026Z,12.29
2023-02-15T13:28:20.605Z,12.65
2023-02-15T13:30:48.763Z,12.87
2023-02-15T13:33:27.217Z,13.13
2023-02-15T13:36:15.555Z,13.43
2023-02-15T13:38:53.804Z,13.56
2023-02-15T13:41:35.599Z,13.48
2023-02-15T13:44:08.958Z,13.53
2023-02-15T13:46:54.039Z,13.57
2023-02-15T13:50:01.567Z,13.33
2023-02-15T13:52:31.647Z,13.47
2023-02-15T13:55:29.998Z,13.61
2023-02-15T13:58:07.960Z,13.83
2023-02-15T14:00:50.280Z,13.92
2023-02-15T14:03:42.843Z,13.96
2023-02-15T14:06:29.121Z,14.00
2023-02-15T14:09:17.513Z,14.24
2023-02-15T14:12:09.206Z,14.05
2023-02-15T14:14:35.486Z,14.39
2023-02-15T14:17:18.718Z,14.56
2023-02-15T14:20:00.602Z,14.89
2023-02-15T14:22:34.587Z,15.11
2023-02-15T14:25:13.408Z,14.93
2023-02-15T14:28:06.691Z,14.92
2023-02-15T14:30:37.283Z,14.71
2023-02-15T14:33:33.147Z,14.06
2023-02-15T14:36:02.107Z,14.41
2023-02-15T14:38:39.501Z,14.29
2023-02-15T14:41:11.112Z,14.37
2023-02-15T14:44:26.541Z,13.88
2023-02-15T14:47:16.186Z,13.50
2023-02-15T14:49:42.537Z,13.28
2023-02-15T14:52:11.515Z,13.00
2023-02-15T14:54:37.765Z,13.11
2023-02-15T14:57:04.027Z,12.83
2023-02-15T14:59:36.059Z,12.91
2023-02-15T15:02:08.636Z,12.98
2023-02-15T15:04:39.309Z,13.07
2023-02-15T15:07:19.982Z,13.22
2023-02-15T15:09:57.970Z,13.38
2023-02-15T15:12:27.209Z,13.37
2023-02-15T15:14:54.985Z,13.48
2023-02-15T15:17:33.684Z,13.40
2023-02-15T15:20:01.838Z,13.47
2023-02-15T15:22:30.748Z,13.46
2023-02-15T15:24:59.416Z,13.63
2023-02-15T15:27:41.281Z,13.55
2023-02-15T15:30:13.704Z,13.07
2023-02-15T15:32:52.693Z,12.87
2023-02-15T15:35:45.799Z,12.90
2023-02-15T15:38:36.735Z,12.87
2023-02-15T15:41:43.575Z,12.97
2023-02-15T15:44:34.488Z,13.05
2023-02-15T15:47:13.785Z,13.08
2023-02-15T15:49:41.229Z,13.04
2023-02-15T15:52:19.091Z,12.91
2023-02-15T15:54:48.676Z,12.50
2023-02-15T15:57:39.209Z,11.65
2023-02-15T16:00:27.841Z,11.41
2023-02-15T16:02:56.341Z,11.41
2023-02-15T16:05:23.154Z,11.58
2023-02-15T16:07:50.448Z,11.60
2023-02-15T16:10:28.701Z,11.77
2023-02-15T16:12:56.162Z,11.77
2023-02-15T16:15:42.730Z,11.61
2023-02-15T16:18:16.412Z,11.62
2023-02-15T16:20:53.847Z,11.16
2023-02-15T16:23:35.462Z,10.65
2023-02-15T16:26:13.693Z,10.52
2023-02-15T16:28:40.282Z,10.37
2023-02-15T16:31:16.227Z,10.43
2023-02-15T16:33:45.726Z,10.51
2023-02-15T16:36:21.409Z,10.59
2023-02-15T16:38:47.687Z,10.51
2023-02-15T16:41:19.324Z,10.62
2023-02-15T16:43:47.936Z,10.60
2023-02-15T16:46:22.931Z,10.07
2023-02-15T16:48:52.657Z,9.70
2023-02-15T16:51:23.058Z,9.45
2023-02-15T16:53:50.475Z,9.40
2023-02-15T16:56:24.329Z,9.09
2023-02-15T16:58:53.602Z,9.12
2023-02-15T17:01:24.826Z,9.13
2023-02-15T17:04:10.660Z,9.17
2023-02-15T17:06:37.090Z,8.90
2023-02-15T17:09:06.594Z,8.79
2023-02-15T17:11:44.337Z,8.86
2023-02-15T17:14:15.094Z,8.63
2023-02-15T17:17:02.550Z,8.69
2023-02-15T17:19:40.918Z,8.82
2023-02-15T17:22:07.740Z,8.86
2023-02-15T17:24:41.691Z,8.89
2023-02-15T17:27:15.482Z,8.86
2023-02-15T17:29:46.710Z,8.84
2023-02-15T17:32:25.531Z,8.75
2023-02-15T17:35:00.315Z,8.64
2023-02-15T17:37:30.177Z,8.35
2023-02-15T17:39:58.281Z,8.36
2023-02-15T17:42:24.954Z,8.30
2023-02-15T17:44:51.338Z,8.31
2023-02-15T17:47:20.368Z,8.19
2023-02-15T17:49:49.876Z,8.18
2023-02-15T17:52:18.189Z,8.06
2023-02-15T17:55:03.954Z,8.06
2023-02-15T17:57:31.104Z,8.06
2023-02-15T18:00:16.175Z,7.95
2023-02-15T18:03:02.115Z,7.94
2023-02-15T18:05:47.046Z,7.72
2023-02-15T18:08:34.908Z,7.80
2023-02-15T18:11:20.363Z,7.49
2023-02-15T18:13:46.928Z,7.64
2023-02-15T18:16:16.360Z,7.63
2023-02-15T18:18:45.014Z,7.65
2023-02-15T18:21:12.336Z,7.61
2023-02-15T18:23:39.561Z,7.64
2023-02-15T18:26:06.532Z,7.47
2023-02-15T18:28:32.981Z,7.49
2023-02-15T18:31:00.195Z,7.44
2023-02-15T18:33:39.013Z,7.42
2023-02-15T18:36:07.954Z,7.43
2023-02-15T18:38:34.526Z,7.09
2023-02-15T18:41:03.520Z,7.07
2023-02-15T18:43:30.153Z,7.09
2023-02-15T18:45:56.615Z,7.15
2023-02-15T18:48:22.986Z,7.13
2023-02-15T18:50:50.874Z,7.16
2023-02-15T18:53:20.801Z,6.78
2023-02-15T18:55:47.663Z,6.88
2023-02-15T18:58:20.339Z,6.96
2023-02-15T19:00:48.243Z,6.94
2023-02-15T19:03:16.165Z,6.81
2023-02-15T19:05:45.100Z,6.78
2023-02-15T19:08:21.837Z,6.77
2023-02-15T19:10:48.414Z,6.78
2023-02-15T19:13:15.149Z,6.84
2023-02-15T19:15:41.530Z,6.76
2023-02-15T19:18:08.183Z,6.75
2023-02-15T19:20:41.273Z,6.78
2023-02-15T19:23:17.265Z,6.66
2023-02-15T19:25:43.733Z,6.74
2023-02-15T19:28:19.537Z,6.73
2023-02-15T19:30:45.933Z,6.73
2023-02-15T19:33:17.249Z,6.64
2023-02-15T19:35:45.606Z,6.59
2023-02-15T19:38:18.795Z,6.31
2023-02-15T19:40:45.748Z,6.38
2023-02-15T19:43:18.451Z,6.38
2023-02-15T19:45:45.651Z,6.26
2023-02-15T19:48:14.791Z,6.33
2023-02-15T19:50:43.479Z,6.39
2023-02-15T19:53:27.913Z,6.39
2023-02-15T19:55:54.627Z,6.37
2023-02-15T19:58:21.721Z,6.29
2023-02-15T20:00:50.422Z,6.32
2023-02-15T20:03:17.354Z,6.22
2023-02-15T20:05:44.336Z,6.27
2023-02-15T20:08:18.294Z,6.23
2023-02-15T20:10:45.791Z,6.17
2023-02-15T20:13:16.939Z,5.98
2023-02-15T20:15:44.209Z,6.00
2023-02-15T20:18:11.300Z,5.93
2023-02-15T20:20:47.873Z,5.96
2023-02-15T20:23:29.051Z,5.85
2023-02-15T20:25:59.442Z,5.84
2023-02-15T20:28:29.121Z,5.82
2023-02-15T20:30:55.596Z,5.82
2023-02-15T20:33:22.417Z,5.81
2023-02-15T20:35:50.157Z,5.84
2023-02-15T20:38:26.350Z,5.85
2023-02-15T20:41:12.737Z,5.69
2023-02-15T20:43:39.187Z,5.77
2023-02-15T20:46:06.594Z,5.80
2023-02-15T20:48:33.662Z,5.71
2023-02-15T20:51:00.260Z,5.73
2023-02-15T20:53:28.201Z,5.74
2023-02-15T20:55:55.410Z,5.66
2023-02-15T20:58:30.742Z,5.62
2023-02-15T21:00:58.750Z,5.61
2023-02-15T21:03:30.129Z,5.50
2023-02-15T21:05:57.532Z,5.52
2023-02-15T21:08:24.120Z,5.53
2023-02-15T21:10:52.510Z,5.57
2023-02-15T21:13:31.044Z,5.56
2023-02-15T21:15:58.255Z,5.47
2023-02-15T21:18:30.078Z,5.37
2023-02-15T21:20:59.502Z,5.43
2023-02-15T21:23:29.424Z,5.46
2023-02-15T21:25:57.163Z,5.42
2023-02-15T21:28:26.525Z,5.35
2023-02-15T21:30:54.228Z,5.39
2023-02-15T21:33:21.178Z,5.29
2023-02-15T21:35:50.472Z,5.23
2023-02-15T21:38:20.667Z,5.27
2023-02-15T21:40:47.509Z,5.23
2023-02-15T21:43:34.334Z,5.33
2023-02-15T21:46:44.689Z,5.31
2023-02-15T21:49:11.251Z,5.25
2023-02-15T21:51:56.420Z,5.18
2023-02-15T21:54:22.785Z,5.16
2023-02-15T21:56:51.260Z,5.13
2023-02-15T21:59:18.354Z,5.07
2023-02-15T22:01:50.792Z,5.09
2023-02-15T22:04:27.792Z,5.19
2023-02-15T22:06:54.960Z,5.09
2023-02-15T22:09:25.034Z,4.98
2023-02-15T22:11:52.296Z,4.98
2023-02-15T22:14:41.804Z,4.92
2023-02-15T22:17:18.686Z,4.88
2023-02-15T22:19:47.048Z,4.94
2023-02-15T22:22:13.628Z,4.95
2023-02-15T22:24:40.489Z,4.96
2023-02-15T22:27:13.459Z,5.01
2023-02-15T22:29:39.817Z,4.88
2023-02-15T22:32:10.745Z,4.81
2023-02-15T22:34:37.186Z,4.90
2023-02-15T22:37:03.577Z,4.97
2023-02-15T22:39:29.906Z,4.92
2023-02-15T22:41:56.873Z,4.88
2023-02-15T22:44:32.146Z,4.83
2023-02-15T22:47:00.482Z,4.84
2023-02-15T22:49:27.188Z,4.89
2023-02-15T22:51:53.532Z,4.81
2023-02-15T22:54:20.070Z,4.80
2023-02-15T22:56:48.797Z,4.79
2023-02-15T22:59:28.746Z,4.77
2023-02-15T23:01:56.784Z,4.56
2023-02-15T23:04:26.071Z,4.60
2023-02-15T23:06:58.049Z,4.59
2023-02-15T23:09:24.377Z,4.60
2023-02-15T23:11:51.867Z,4.56
2023-02-15T23:14:35.690Z,4.50
2023-02-15T23:17:02.422Z,4.31
2023-02-15T23:19:28.960Z,4.30
2023-02-15T23:21:55.550Z,4.35
2023-02-15T23:24:26.073Z,4.33
2023-02-15T23:26:52.521Z,4.14
2023-02-15T23:29:24.859Z,4.14
2023-02-15T23:31:53.128Z,4.11
2023-02-15T23:34:37.877Z,4.14
2023-02-15T23:37:04.224Z,4.14
2023-02-15T23:39:49.414Z,4.13
2023-02-15T23:42:20.049Z,4.11
2023-02-15T23:44:47.781Z,4.12
2023-02-15T23:47:45.751Z,4.01
2023-02-15T23:50:19.947Z,3.90
2023-02-15T23:52:46.385Z,3.89
2023-02-15T23:55:14.063Z,3.97
2023-02-15T23:57:41.347Z,3.94
